Terminal Aerodrome Forecast
Issued by NWS

Home | Current Version | Previous Version | Text Only | Print | Product List | Glossary On
Versions: 1 2 3 4 5 6 7 8 9 10 11 12 13 14 15
000
FTUS43 KIWX 121900 AAA
TAFSBN
TAF AMD
KSBN 121928Z 1219/1318 16009KT P6SM OVC008
     FM122300 18008KT P6SM SCT015 BKN070
     FM130400 24008KT 3SM TSRA BKN015 OVC030CB
     FM131000 26007KT P6SM VCSH OVC015
     FM131500 28008KT P6SM SCT020=

USA.gov is the U.S. government's official web portal to all federal, state and local government web resources and services.